Time;durP1;ratioP1;P1;durP2;ratioP2;P2;SDS_P1;SDS_P2;PMS_P1;PMS_P2;Temp;Humidity;BMP_temperature;BMP_pressure;BME280_temperature;BME280_humidity;BME280_pressure;Samples;Min_cycle;Max_cycle;Signal;HPM_P1;HPM_P2
2024/02/19 00:03:15;;;;;;;32.97;17.87;;;;;;;4.00;100.00;101226.18;4910964;57;1140828;-80
2024/02/19 00:08:27;;;;;;;38.80;19.20;;;;;;;4.00;100.00;101206.55;4917224;59;1140826;-80
2024/02/19 00:13:42;;;;;;;;;;;;;;;;;;;;;
2024/02/19 00:18:41;;;;;;;39.63;16.40;;;;;;;3.98;100.00;101190.50;4834950;57;1141073;-80
2024/02/19 00:23:48;;;;;;;35.10;18.30;;;;;;;4.02;100.00;101184.24;4878791;56;1142947;-80
2024/02/19 00:28:57;;;;;;;37.65;19.65;;;;;;;4.04;100.00;101158.87;4997372;57;1140759;-80
2024/02/19 00:34:02;;;;;;;40.00;20.57;;;;;;;4.01;100.00;101155.06;5020001;57;1140989;-80
2024/02/19 00:39:19;;;;;;;;;;;;;;;;;;;;;
2024/02/19 00:44:18;;;;;;;33.13;17.40;;;;;;;3.99;100.00;101125.48;4894607;56;1140815;-80
2024/02/19 00:49:27;;;;;;;33.90;18.83;;;;;;;3.99;100.00;101118.48;4899848;56;1142947;-80
2024/02/19 00:54:35;;;;;;;36.23;20.37;;;;;;;4.01;100.00;101107.49;4932069;55;1140616;-80
2024/02/19 00:59:44;;;;;;;41.77;21.20;;;;;;;4.01;100.00;101111.87;4963787;57;1140832;-80
2024/02/19 01:04:52;;;;;;;41.07;19.00;;;;;;;4.00;100.00;101097.94;4832946;57;1140826;-80
2024/02/19 01:09:59;;;;;;;34.87;18.40;;;;;;;4.01;100.00;101080.02;4789535;58;1141110;-79
2024/02/19 01:15:05;;;;;;;34.50;19.93;;;;;;;4.02;100.00;101066.02;4771407;59;1143089;-79
2024/02/19 01:20:12;;;;;;;39.87;21.13;;;;;;;4.01;100.00;101047.30;4874417;57;1140552;-79
2024/02/19 01:25:21;;;;;;;41.23;20.07;;;;;;;3.98;100.00;101031.72;4929997;58;1140763;-79
2024/02/19 01:30:28;;;;;;;35.65;18.42;;;;;;;4.00;100.00;101032.97;4956761;58;1140665;-79
2024/02/19 01:35:34;;;;;;;43.03;20.63;;;;;;;3.87;100.00;100995.55;4931827;57;1143006;-78
2024/02/19 01:40:39;;;;;;;38.73;20.75;;;;;;;4.04;100.00;101001.83;4972582;57;1140872;-79
2024/02/19 01:45:45;;;;;;;38.53;19.67;;;;;;;4.03;100.00;100996.20;4967655;56;1141076;-79
2024/02/19 01:50:52;;;;;;;39.30;19.07;;;;;;;3.99;100.00;100986.77;4968124;56;1140726;-79
2024/02/19 01:55:58;;;;;;;52.13;21.33;;;;;;;4.01;100.00;100978.41;4972019;56;1140916;-79
2024/02/19 02:01:06;;;;;;;40.90;20.97;;;;;;;4.01;100.00;100974.47;4920591;56;1141068;-79
2024/02/19 02:06:16;;;;;;;40.30;19.57;;;;;;;4.01;100.00;100967.48;4874029;58;1140520;-79
2024/02/19 02:11:50;;;;;;;;;;;;;;;;;;;;;
2024/02/19 05:32:18;;;;;;;39.95;23.25;;;;;;;4.19;100.00;100651.23;4967635;54;1138361;-78
2024/02/19 05:37:24;;;;;;;42.93;22.63;;;;;;;4.22;100.00;100643.70;5121796;55;1142595;-78
2024/02/19 05:42:29;;;;;;;38.53;21.52;;;;;;;4.24;100.00;100652.33;5125582;56;1140715;-77
2024/02/19 05:47:35;;;;;;;38.30;21.97;;;;;;;4.24;100.00;100645.33;5141345;55;1141017;-81
2024/02/19 05:52:40;;;;;;;38.55;20.70;;;;;;;4.26;100.00;100636.09;5104854;56;1142994;-80
2024/02/19 05:57:46;;;;;;;32.23;20.23;;;;;;;4.29;100.00;100629.83;5105893;56;1142687;-80
2024/02/19 06:02:51;;;;;;;37.30;20.00;;;;;;;4.34;100.00;100627.37;5061509;56;1143046;-80
2024/02/19 06:07:57;;;;;;;35.97;21.47;;;;;;;4.42;100.00;100620.46;5117836;56;1142714;-80
2024/02/19 06:13:03;;;;;;;39.60;22.70;;;;;;;4.45;100.00;100614.58;5059454;55;1143194;-78
2024/02/19 06:18:09;;;;;;;35.67;19.47;;;;;;;4.46;100.00;100614.97;5122814;55;1140855;-80
2024/02/19 06:23:15;;;;;;;32.20;18.20;;;;;;;4.48;100.00;100612.27;5118076;55;1142841;-82
2024/02/19 06:28:21;;;;;;;28.90;18.23;;;;;;;4.52;100.00;100608.12;5118167;56;1143341;-79
2024/02/19 06:33:26;;;;;;;33.43;18.03;;;;;;;4.60;100.00;100591.53;5138018;55;1142657;-78
2024/02/19 06:38:32;;;;;;;36.68;21.33;;;;;;;4.68;100.00;100595.55;5117719;55;1142805;-79
2024/02/19 06:43:37;;;;;;;37.20;23.17;;;;;;;4.70;100.00;100583.22;5048625;56;1141060;-78
2024/02/19 06:48:44;;;;;;;32.10;19.73;;;;;;;4.73;100.00;100585.69;5051171;57;1140724;-78
2024/02/19 06:53:50;;;;;;;29.20;17.35;;;;;;;4.74;100.00;100572.47;5076025;56;1143207;-78
2024/02/19 06:58:56;;;;;;;39.63;21.23;;;;;;;4.81;100.00;100573.02;5138024;55;1142796;-81
2024/02/19 07:04:02;;;;;;;37.03;21.87;;;;;;;4.88;100.00;100567.38;5139317;56;1142770;-80
2024/02/19 07:09:07;;;;;;;55.50;28.90;;;;;;;4.95;100.00;100564.80;5159975;56;1142893;-77
2024/02/19 07:14:13;;;;;;;53.23;23.77;;;;;;;5.04;100.00;100556.89;5206973;55;1142721;-77
2024/02/19 07:19:18;;;;;;;54.40;23.77;;;;;;;5.08;100.00;100554.48;5227082;55;1142748;-78
2024/02/19 07:24:26;;;;;;;48.57;20.33;;;;;;;5.13;100.00;100552.94;5248624;55;1141328;-80
2024/02/19 07:29:31;;;;;;;35.13;18.10;;;;;;;5.17;100.00;100546.14;5227742;55;1143152;-79
2024/02/19 07:34:37;;;;;;;26.77;14.10;;;;;;;5.22;100.00;100540.62;5228009;55;1143206;-77
2024/02/19 07:39:43;;;;;;;27.77;15.67;;;;;;;5.30;100.00;100535.82;5248484;54;1142982;-80
2024/02/19 07:44:49;;;;;;;25.67;14.17;;;;;;;5.36;100.00;100530.21;5227905;55;1142727;-78
2024/02/19 07:49:54;;;;;;;21.27;11.73;;;;;;;5.42;100.00;100520.70;5227806;54;1143072;-77
2024/02/19 07:55:00;;;;;;;35.23;17.37;;;;;;;5.48;100.00;100522.14;5248080;54;1143104;-77
2024/02/19 08:00:07;;;;;;;23.17;15.17;;;;;;;5.52;100.00;100515.77;5227233;55;1143336;-77
2024/02/19 08:05:12;;;;;;;50.30;26.30;;;;;;;5.53;100.00;100509.13;5227351;55;1142878;-77
2024/02/19 08:10:18;;;;;;;41.57;18.57;;;;;;;5.55;100.00;100503.33;5247512;55;1142869;-77
2024/02/19 08:15:23;;;;;;;21.20;13.67;;;;;;;5.61;100.00;100506.08;5226059;55;1142868;-77
2024/02/19 08:20:29;;;;;;;16.43;13.03;;;;;;;5.67;100.00;100496.53;5227080;54;1142966;-78
2024/02/19 08:25:35;;;;;;;22.15;13.72;;;;;;;5.70;100.00;100491.58;5261338;54;1142903;-77
2024/02/19 08:30:41;;;;;;;24.00;15.20;;;;;;;5.73;100.00;100486.16;5227075;54;1142881;-77
2024/02/19 08:35:47;;;;;;;19.23;11.67;;;;;;;5.78;100.00;100478.41;5227862;54;1142922;-78
2024/02/19 08:40:52;;;;;;;13.47;10.07;;;;;;;5.83;100.00;100485.52;5228265;54;1143135;-78
2024/02/19 08:45:58;;;;;;;19.27;13.47;;;;;;;5.91;100.00;100479.41;5248565;54;1143003;-78
2024/02/19 08:51:04;;;;;;;18.27;12.10;;;;;;;5.97;100.00;100473.77;5227501;54;1143049;-77
2024/02/19 08:56:09;;;;;;;20.63;12.67;;;;;;;6.06;100.00;100468.47;5227168;54;1142951;-78
2024/02/19 09:01:16;;;;;;;23.93;15.50;;;;;;;6.16;100.00;100468.28;5248071;54;1143356;-77
2024/02/19 09:06:21;;;;;;;18.77;12.87;;;;;;;6.23;100.00;100463.05;5227205;55;1142833;-78
2024/02/19 09:11:27;;;;;;;20.77;13.40;;;;;;;6.30;100.00;100456.47;5227018;55;1142676;-78
2024/02/19 09:16:36;;;;;;;18.83;12.83;;;;;;;6.37;100.00;100451.70;5248116;54;1143145;-77
2024/02/19 09:21:43;;;;;;;18.77;13.90;;;;;;;6.43;100.00;100435.54;5227127;55;1143086;-78
2024/02/19 09:26:48;;;;;;;23.00;16.27;;;;;;;6.43;100.00;100434.23;5227116;54;1142746;-78
2024/02/19 09:31:54;;;;;;;14.77;10.63;;;;;;;6.47;100.00;100442.77;5227729;54;1145637;-78
2024/02/19 09:37:00;;;;;;;19.80;14.00;;;;;;;6.49;100.00;100439.58;5248041;54;1143267;-78
2024/02/19 09:42:08;;;;;;;21.80;13.20;;;;;;;6.51;100.00;100431.98;5227374;55;1143293;-77
2024/02/19 09:47:16;;;;;;;15.53;9.47;;;;;;;6.55;100.00;100428.23;5227022;55;1143104;-77
2024/02/19 09:52:25;;;;;;;16.83;12.43;;;;;;;6.62;100.00;100431.30;5248156;55;1140539;-78
2024/02/19 09:57:31;;;;;;;16.40;10.83;;;;;;;6.65;100.00;100430.66;5227711;55;1142555;-78
2024/02/19 10:02:38;;;;;;;15.88;10.95;;;;;;;6.72;100.00;100427.66;5216354;55;1142994;-78
2024/02/19 10:07:46;;;;;;;9.54;7.66;;;;;;;6.78;100.00;100428.56;5229371;55;1143199;-77
2024/02/19 10:12:52;;;;;;;14.40;9.45;;;;;;;6.83;100.00;100422.08;5235318;54;1138650;-77
2024/02/19 10:17:57;;;;;;;15.97;11.30;;;;;;;6.89;100.00;100424.77;5227958;55;1141000;-77
2024/02/19 10:23:03;;;;;;;35.40;24.37;;;;;;;6.91;100.00;100422.42;5216983;55;1143242;-78
2024/02/19 10:28:10;;;;;;;26.17;19.07;;;;;;;6.96;100.00;100415.56;5159657;55;1142860;-77
2024/02/19 10:33:16;;;;;;;15.85;12.50;;;;;;;6.97;100.00;100412.00;5121693;55;1142987;-77
2024/02/19 10:38:22;;;;;;;33.07;19.17;;;;;;;6.99;100.00;100408.80;5139801;55;1142907;-78
2024/02/19 10:43:27;;;;;;;27.33;15.03;;;;;;;7.02;100.00;100407.30;5159900;55;1142767;-77
2024/02/19 10:48:34;;;;;;;39.47;13.20;;;;;;;7.03;100.00;100404.53;5140778;55;1142841;-77
2024/02/19 10:53:40;;;;;;;11.30;6.10;;;;;;;7.05;100.00;100401.34;5140348;55;1142918;-77
2024/02/19 10:58:59;;;;;;;9.98;6.03;;;;;;;7.07;100.00;100405.19;5199845;55;1141267;-78
2024/02/19 11:04:27;;;;;;;15.83;10.43;;;;;;;7.10;100.00;100406.31;5120693;56;1138473;-78
2024/02/19 11:09:33;;;;;;;;;;;;;;;7.13;100.00;100404.80;5193494;54;1142739;-78
2024/02/19 11:14:39;;;;;;;3.50;2.90;;;;;;;7.15;100.00;100403.39;5247698;55;975988;-78
2024/02/19 11:19:45;;;;;;;3.65;2.83;;;;;;;7.18;100.00;100410.58;5231250;55;1136703;-78
2024/02/19 11:24:50;;;;;;;6.95;3.90;;;;;;;7.17;100.00;100407.61;5192659;55;1138689;-79
2024/02/19 11:30:00;;;;;;;3.05;2.30;;;;;;;7.15;100.00;100429.22;5140874;55;1138794;-78
2024/02/19 11:35:12;;;;;;;9.13;3.50;;;;;;;6.97;100.00;100428.61;5138550;55;1139157;-78
2024/02/19 11:40:18;;;;;;;2.30;2.10;;;;;;;6.85;100.00;100438.60;5161269;55;1138469;-78
2024/02/19 11:45:23;;;;;;;3.57;1.70;;;;;;;6.81;100.00;100444.14;5140793;55;1138443;-78
2024/02/19 11:50:33;;;;;;;6.13;3.30;;;;;;;6.79;100.00;100449.97;5140596;55;1138392;-78
2024/02/19 11:55:40;;;;;;;6.75;2.83;;;;;;;6.75;100.00;100451.93;5245327;55;1139177;-78
2024/02/19 12:00:48;;;;;;;4.50;2.52;;;;;;;6.72;100.00;100455.25;5197970;55;1139072;-78
2024/02/19 12:06:02;;;;;;;4.12;2.37;;;;;;;6.68;100.00;100454.59;5194500;55;1138837;-78
2024/02/19 12:11:03;;;;;;;2.50;1.73;;;;;;;6.66;100.00;100461.72;5227021;55;1139043;-78
2024/02/19 12:16:10;;;;;;;3.60;1.67;;;;;;;6.62;100.00;100460.21;5248691;55;1138948;-78
2024/02/19 12:21:17;;;;;;;4.37;1.60;;;;;;;6.62;100.00;100462.84;5227549;55;1138686;-77
2024/02/19 12:26:24;;;;;;;8.27;3.13;;;;;;;6.61;100.00;100459.37;5155321;55;1138784;-77
2024/02/19 12:31:29;;;;;;;5.60;4.43;;;;;;;6.61;100.00;100464.63;5160523;55;1138678;-81
2024/02/19 12:36:35;;;;;;;3.27;1.50;;;;;;;6.61;100.00;100456.74;5141424;55;1138651;-80
2024/02/19 12:41:43;;;;;;;2.03;1.70;;;;;;;6.56;100.00;100452.27;5136861;55;1138605;-81
2024/02/19 12:46:49;;;;;;;1.50;1.40;;;;;;;6.65;100.00;100472.70;5110198;55;1138707;-80
2024/02/19 12:51:57;;;;;;;2.80;2.40;;;;;;;6.64;100.00;100474.95;5224910;55;1138633;-80
2024/02/19 12:57:05;;;;;;;5.30;1.93;;;;;;;6.62;100.00;100482.08;5227212;55;1138680;-80
2024/02/19 13:02:14;;;;;;;1.93;1.40;;;;;;;6.58;100.00;100488.45;5285935;55;1138639;-80
2024/02/19 13:07:17;;;;;;;2.63;2.40;;;;;;;6.56;100.00;100491.67;5254646;55;1138894;-80
2024/02/19 13:12:23;;;;;;;1.30;1.07;;;;;;;6.50;100.00;100497.30;5258551;55;1138663;-80
2024/02/19 13:17:30;;;;;;;311.40;186.12;;;;;;;6.50;100.00;100497.30;5228320;55;1139105;-80
2024/02/19 13:22:36;;;;;;;4.23;2.33;;;;;;;6.53;100.00;100508.94;5257902;55;1146878;-80
2024/02/19 13:27:42;;;;;;;5.87;3.97;;;;;;;6.51;100.00;100525.73;5140116;55;1139192;-80
2024/02/19 13:32:48;;;;;;;2.83;1.80;;;;;;;6.47;100.00;100524.21;5160691;54;1138737;-80
2024/02/19 13:37:56;;;;;;;18.17;10.80;;;;;;;6.39;100.00;100531.26;5221946;54;1139001;-80
2024/02/19 13:43:01;;;;;;;6.42;4.35;;;;;;;6.35;100.00;100533.22;5159868;54;1142727;-80
2024/02/19 13:48:07;;;;;;;2.12;1.30;;;;;;;6.35;100.00;100534.53;5201915;55;1139413;-80
2024/02/19 13:53:13;;;;;;;6.37;3.40;;;;;;;6.31;100.00;100560.59;5251372;55;1136624;-80
2024/02/19 13:58:19;;;;;;;4.03;2.53;;;;;;;6.34;100.00;100563.52;5230510;54;1138776;-80
2024/02/19 14:03:25;;;;;;;11.93;5.43;;;;;;;6.32;100.00;100564.06;5117690;56;1138604;-80
2024/02/19 14:08:31;;;;;;;12.27;7.40;;;;;;;6.27;100.00;100575.30;5094808;56;1141128;-80
2024/02/19 14:13:36;;;;;;;7.97;4.40;;;;;;;6.26;100.00;100583.64;5209886;56;1140817;-80
2024/02/19 14:18:42;;;;;;;6.40;3.83;;;;;;;6.24;100.00;100588.17;5241321;56;1138960;-79
2024/02/19 14:23:49;;;;;;;5.17;2.97;;;;;;;6.24;100.00;100599.98;5216352;55;1139203;-80
2024/02/19 14:29:01;;;;;;;1.75;1.45;;;;;;;6.22;100.00;100604.95;5135920;55;1138738;-80
2024/02/19 14:34:03;;;;;;;1.73;1.63;;;;;;;6.16;100.00;100617.11;5288780;55;1138546;-80
2024/02/19 14:39:10;;;;;;;2.90;1.67;;;;;;;6.08;100.00;100618.88;5156420;55;1138589;-80
2024/02/19 14:44:16;;;;;;;2.17;1.97;;;;;;;5.99;100.00;100630.73;5208405;55;1138717;-80
2024/02/19 14:49:22;;;;;;;1.60;1.50;;;;;;;5.89;100.00;100644.02;5247284;55;1136663;-79
2024/02/19 14:54:27;;;;;;;1.32;1.20;;;;;;;5.78;100.00;100649.45;5228006;54;1137010;-80
2024/02/19 14:59:40;;;;;;;40.00;15.20;;;;;;;5.71;100.00;100658.12;5238262;55;1138778;-81
2024/02/19 15:04:42;;;;;;;18.13;8.13;;;;;;;5.64;100.00;100653.69;5159977;56;1143034;-80
2024/02/19 15:09:48;;;;;;;31.93;19.67;;;;;;;5.63;100.00;100676.08;5139597;56;1140657;-79
2024/02/19 15:14:55;;;;;;;1.70;1.50;;;;;;;5.60;100.00;100678.39;5139228;56;1142865;-79
2024/02/19 15:20:01;;;;;;;32.93;12.67;;;;;;;5.57;100.00;100679.02;5159570;56;1136721;-78
2024/02/19 15:25:07;;;;;;;12.20;4.17;;;;;;;5.56;100.00;100679.95;5177949;55;1143113;-80
2024/02/19 15:30:15;;;;;;;9.33;2.83;;;;;;;5.51;100.00;100691.98;5228048;55;1140741;-79
2024/02/19 15:35:20;;;;;;;6.63;2.57;;;;;;;5.48;100.00;100699.20;5194101;55;1136591;-80
2024/02/19 15:40:26;;;;;;;5.80;3.50;;;;;;;5.42;100.00;100710.02;5207044;55;1136553;-77
2024/02/19 15:45:33;;;;;;;12.07;8.60;;;;;;;5.38;100.00;100711.94;5227698;55;1138438;-77
2024/02/19 15:50:38;;;;;;;5.37;2.87;;;;;;;5.37;100.00;100727.75;5208076;55;1141069;-75
2024/02/19 15:55:44;;;;;;;4.60;2.55;;;;;;;5.36;100.00;100733.46;5222885;55;1138935;-76
2024/02/19 16:00:50;;;;;;;13.70;11.10;;;;;;;5.23;100.00;100738.97;5224080;55;1138956;-75
2024/02/19 16:06:00;;;;;;;9.58;4.08;;;;;;;5.23;100.00;100738.97;5230863;55;1141145;-82
2024/02/19 16:11:08;;;;;;;1.80;1.50;;;;;;;5.25;100.00;100754.16;5252068;55;1139043;-80
2024/02/19 16:16:16;;;;;;;2.47;1.80;;;;;;;5.21;100.00;100757.86;5231446;55;1136611;-80
2024/02/19 16:21:20;;;;;;;3.60;3.10;;;;;;;5.18;100.00;100752.80;5229732;53;1136757;-82
2024/02/19 16:26:26;;;;;;;2.60;1.97;;;;;;;5.15;100.00;100760.82;5248908;55;1136778;-79
2024/02/19 16:31:32;;;;;;;6.23;4.03;;;;;;;5.14;100.00;100770.45;5215797;55;1136763;-81
2024/02/19 16:36:37;;;;;;;5.50;3.73;;;;;;;5.11;100.00;100773.23;5219419;55;1137066;-81
2024/02/19 16:41:43;;;;;;;6.20;2.93;;;;;;;5.13;100.00;100775.78;5229051;55;1136741;-81
2024/02/19 16:46:50;;;;;;;5.00;2.47;;;;;;;5.14;100.00;100786.19;5228769;54;1136696;-86
2024/02/19 16:51:56;;;;;;;2.23;1.53;;;;;;;5.12;100.00;100788.03;5223456;54;1136893;-79
2024/02/19 16:57:01;;;;;;;4.27;2.70;;;;;;;5.11;100.00;100802.53;5249399;55;1136889;-79
2024/02/19 17:02:07;;;;;;;4.83;3.63;;;;;;;5.05;100.00;100794.95;5228287;55;1136734;-80
2024/02/19 17:07:15;;;;;;;17.00;7.47;;;;;;;5.03;100.00;100806.02;5227907;55;1136617;-79
2024/02/19 17:12:20;;;;;;;8.60;4.50;;;;;;;5.04;100.00;100806.40;5231177;54;1140936;-79
2024/02/19 17:17:26;;;;;;;9.95;5.37;;;;;;;5.02;100.00;100809.55;5206285;55;1136634;-80
2024/02/19 17:22:32;;;;;;;12.77;5.60;;;;;;;5.00;100.00;100819.27;5219405;55;1136490;-82
2024/02/19 17:27:37;;;;;;;9.27;5.83;;;;;;;4.99;100.00;100817.11;5248101;55;1140812;-80
2024/02/19 17:32:45;;;;;;;8.67;3.90;;;;;;;4.98;100.00;100821.11;5228339;55;1136611;-82
2024/02/19 17:37:51;;;;;;;4.67;3.40;;;;;;;4.95;100.00;100822.95;5228308;55;1136847;-80
2024/02/19 17:42:56;;;;;;;6.25;3.42;;;;;;;4.91;100.00;100828.41;5221033;54;1136913;-77
2024/02/19 17:48:02;;;;;;;5.83;4.27;;;;;;;4.90;100.00;100834.58;5249126;55;1136461;-82
2024/02/19 17:53:08;;;;;;;4.47;3.33;;;;;;;4.89;100.00;100838.97;5228220;55;1136764;-81
2024/02/19 17:58:14;;;;;;;7.53;2.83;;;;;;;4.93;100.00;100844.91;5227304;55;1138913;-81
2024/02/19 18:03:20;;;;;;;5.30;2.30;;;;;;;4.94;100.00;100855.78;5172604;55;1136738;-83
2024/02/19 18:08:26;;;;;;;4.73;2.63;;;;;;;4.94;100.00;100857.09;5140388;56;1136578;-80
2024/02/19 18:13:33;;;;;;;3.20;2.10;;;;;;;4.98;100.00;100857.34;5175964;55;1136857;-80
2024/02/19 18:18:38;;;;;;;3.00;2.13;;;;;;;4.98;100.00;100857.34;5249470;55;1136731;-81
2024/02/19 18:23:44;;;;;;;4.33;3.10;;;;;;;4.99;100.00;100869.53;5228357;55;1136774;-84
2024/02/19 18:28:51;;;;;;;2.10;1.70;;;;;;;5.01;100.00;100861.13;5185119;55;1136552;-82
2024/02/19 18:33:57;;;;;;;4.17;2.20;;;;;;;5.05;100.00;100860.50;5208192;55;1138665;-78
2024/02/19 18:39:02;;;;;;;1.83;1.33;;;;;;;5.08;100.00;100864.28;5237994;54;1138642;-81
2024/02/19 18:44:08;;;;;;;1.87;1.63;;;;;;;5.08;100.00;100854.64;5228796;55;1136390;-83
2024/02/19 18:49:15;;;;;;;2.10;1.70;;;;;;;5.08;100.00;100855.11;5228664;55;1136325;-84
2024/02/19 18:54:22;;;;;;;2.02;1.57;;;;;;;4.97;100.00;100830.74;5232657;55;1138712;-82
2024/02/19 18:59:32;;;;;;;4.08;1.60;;;;;;;5.14;100.00;100857.44;5220975;55;1136779;-81
2024/02/19 19:04:37;;;;;;;3.70;1.40;;;;;;;5.16;100.00;100856.44;5182565;55;1136670;-76
2024/02/19 19:09:42;;;;;;;6.20;3.13;;;;;;;5.17;100.00;100855.52;5238322;55;1136484;-82
2024/02/19 19:14:48;;;;;;;2.27;1.60;;;;;;;5.21;100.00;100850.95;5227717;55;1138575;-82
2024/02/19 19:19:54;;;;;;;2.00;1.10;;;;;;;5.22;100.00;100848.25;5227514;55;1139399;-81
2024/02/19 19:24:59;;;;;;;2.03;1.57;;;;;;;5.21;100.00;100845.23;5248812;55;1138772;-81
2024/02/19 19:30:06;;;;;;;3.80;1.33;;;;;;;5.26;100.00;100847.64;5228766;55;1138893;-80
2024/02/19 19:35:14;;;;;;;2.57;1.33;;;;;;;5.28;100.00;100842.70;5229981;54;1138832;-81
2024/02/19 19:40:19;;;;;;;1.40;1.30;;;;;;;5.32;100.00;100845.19;5249407;55;1139030;-82
2024/02/19 19:45:25;;;;;;;2.50;1.75;;;;;;;5.34;100.00;100837.63;5228609;55;1139031;-79
2024/02/19 19:50:31;;;;;;;1.20;1.10;;;;;;;5.39;100.00;100835.59;5228139;55;1138759;-82
2024/02/19 19:55:38;;;;;;;2.07;1.20;;;;;;;5.42;100.00;100840.69;5256292;54;1138728;-81
2024/02/19 20:00:45;;;;;;;1.67;1.47;;;;;;;5.47;100.00;100836.06;5208319;54;1138685;-80
2024/02/19 20:05:53;;;;;;;2.50;1.20;;;;;;;5.51;100.00;100843.30;5218532;54;1139145;-79
2024/02/19 20:10:58;;;;;;;1.62;1.50;;;;;;;5.53;100.00;100840.98;5207754;55;1138936;-85
2024/02/19 20:16:04;;;;;;;1.60;1.50;;;;;;;5.56;100.00;100845.23;5211669;55;1138589;-80
2024/02/19 20:21:11;;;;;;;4.07;1.40;;;;;;;5.60;100.00;100851.56;5170494;54;1138636;-81
2024/02/19 20:26:20;;;;;;;2.53;1.20;;;;;;;5.63;100.00;100859.28;5140422;54;1138765;-78
2024/02/19 20:31:26;;;;;;;3.15;1.47;;;;;;;5.66;100.00;100857.78;5200901;54;1138713;-82
2024/02/19 20:36:32;;;;;;;3.98;1.77;;;;;;;5.71;100.00;100861.48;5163577;55;1138818;-79
2024/02/19 20:41:37;;;;;;;1.77;1.67;;;;;;;5.73;100.00;100867.97;5168891;53;1138959;-81
2024/02/19 20:46:43;;;;;;;4.73;1.67;;;;;;;5.77;100.00;100865.58;5183384;55;1138856;-82
2024/02/19 20:51:48;;;;;;;4.23;1.67;;;;;;;5.78;100.00;100868.59;5228603;55;1138571;-81
2024/02/19 20:56:55;;;;;;;1.27;1.15;;;;;;;5.82;100.00;100870.11;5228466;55;1138615;-83
2024/02/19 21:02:01;;;;;;;3.60;0.90;;;;;;;5.85;100.00;100875.20;5248668;55;1138488;-84
2024/02/19 21:07:07;;;;;;;4.50;1.33;;;;;;;5.87;100.00;100874.66;5179402;55;1138918;-83
2024/02/19 21:12:12;;;;;;;1.43;1.23;;;;;;;5.87;100.00;100870.26;5210583;55;1138856;-82
2024/02/19 21:17:18;;;;;;;1.90;1.70;;;;;;;5.89;100.00;100877.63;5246612;55;1139003;-82
2024/02/19 21:34:38;;;;;;;2.20;1.10;;;;;;;5.93;100.00;100877.01;4062766;69;1139538;-82
2024/02/19 21:39:59;;;;;;;3.67;1.20;;;;;;;5.96;100.00;100868.48;5366933;53;46222;-80
2024/02/19 21:45:10;;;;;;;3.13;1.30;;;;;;;5.94;100.00;100874.31;5134965;55;1134817;-81
2024/02/19 21:50:16;;;;;;;2.10;1.40;;;;;;;5.94;100.00;100867.74;5156761;55;1138802;-81
2024/02/19 21:55:22;;;;;;;2.90;2.00;;;;;;;5.95;100.00;100866.81;5136803;55;1138659;-82
2024/02/19 22:00:27;;;;;;;4.77;2.37;;;;;;;5.95;100.00;100865.50;5154472;55;1138810;-82
2024/02/19 22:05:34;;;;;;;3.23;2.13;;;;;;;5.96;100.00;100855.81;5195970;55;1138808;-82
2024/02/19 22:10:40;;;;;;;2.60;2.37;;;;;;;5.97;100.00;100852.27;5145763;54;1139039;-74
2024/02/19 22:15:51;;;;;;;3.83;2.73;;;;;;;5.96;100.00;100850.57;5104751;55;1138782;-71
2024/02/19 22:20:53;;;;;;;7.58;2.25;;;;;;;5.97;100.00;100850.95;5151981;55;1138926;-79
2024/02/19 22:25:58;;;;;;;3.67;2.90;;;;;;;5.97;100.00;100853.58;5220309;55;1138555;-77
2024/02/19 22:31:05;;;;;;;6.23;2.73;;;;;;;5.98;100.00;100847.41;5083771;55;1138763;-74
2024/02/19 22:36:11;;;;;;;5.63;2.83;;;;;;;6.01;100.00;100845.93;5082679;56;1138920;-76
2024/02/19 22:41:16;;;;;;;4.53;2.50;;;;;;;6.02;100.00;100849.41;5156022;56;1139214;-76
2024/02/19 22:46:22;;;;;;;5.93;2.17;;;;;;;6.01;100.00;100843.30;5092999;56;1138740;-75
2024/02/19 22:51:27;;;;;;;4.87;2.00;;;;;;;6.03;100.00;100850.64;5057897;56;1138849;-71
2024/02/19 22:56:33;;;;;;;4.10;1.80;;;;;;;6.05;100.00;100855.34;5090945;56;1139020;-75
2024/02/19 23:01:39;;;;;;;2.03;1.33;;;;;;;6.04;100.00;100854.97;5115790;55;1139027;-76
2024/02/19 23:06:45;;;;;;;3.77;1.52;;;;;;;6.06;100.00;100857.52;5142244;56;1139106;-78
2024/02/19 23:11:50;;;;;;;7.35;1.77;;;;;;;6.08;100.00;100860.44;5123565;56;1139051;-76
2024/02/19 23:17:03;;;;;;;1.50;1.40;;;;;;;6.09;100.00;100865.23;5151401;56;1138772;-78
2024/02/19 23:22:05;;;;;;;2.43;1.37;;;;;;;6.11;100.00;100869.94;5132345;55;1138578;-73
2024/02/19 23:27:10;;;;;;;2.67;1.30;;;;;;;6.12;100.00;100863.27;5111244;56;1138769;-77
2024/02/19 23:32:16;;;;;;;4.27;1.43;;;;;;;6.12;100.00;100859.33;5112786;56;1138864;-77
2024/02/19 23:37:22;;;;;;;4.23;1.50;;;;;;;6.14;100.00;100862.72;5123090;56;1138607;-77
2024/02/19 23:42:27;;;;;;;5.00;1.00;;;;;;;6.15;100.00;100860.48;5069573;56;1138594;-77
2024/02/19 23:47:33;;;;;;;1.83;0.87;;;;;;;6.12;100.00;100863.27;5068927;56;1138890;-74
2024/02/19 23:52:40;;;;;;;2.50;1.00;;;;;;;6.11;100.00;100857.63;5049486;56;1138839;-75
2024/02/19 23:57:45;;;;;;;5.10;1.70;;;;;;;6.09;100.00;100865.23;5049332;56;1138683;-76
